Potter, Wisconsin
Current Conditions -  °F | °C
As of 8:18 AM on Sunday 21 Dec 2014 (Local Time) from KMTW Reporting Station
Haze Haze  
Wind Chill: 25°   Ceiling: 900
Heat Index: 34°   Visibility: 5mi
Dew Point: 30°   Wind: 12mph
Humidity: 87%   Direction: 180°S
Pressure: 30.15"   Gusts: NA
Location:  44.12°N, 88.1°W
Report Text: KMTW 211418Z AUTO 18010KT 5SM BR BKN009 OVC035 01/M01 A3015 RMK AO2 FZRANO
Loading
Personal Weather Stations






























Interactive Weather Map New forecast layout! Learn more

10-Day Weather Forecast

Advertisements
Track Severe Weather on mobile